Time;durP1;ratioP1;P1;durP2;ratioP2;P2;SDS_P1;SDS_P2;PMS_P1;PMS_P2;Temp;Humidity;BMP_temperature;BMP_pressure;BME280_temperature;BME280_humidity;BME280_pressure;Samples;Min_cycle;Max_cycle;Signal;HPM_P1;HPM_P2
2022/07/29 00:01:06;;;;;;;;;;;;;;;;;;5080284;28;19919;-77
2022/07/29 00:03:53;;;;;;;;;;;;;;;;;;5080940;28;19919;-77
2022/07/29 00:06:39;;;;;;;;;;;;;;;;;;5082747;28;19923;-77
2022/07/29 00:09:26;;;;;;;;;;;;;;;;;;5079892;28;19928;-78
2022/07/29 00:12:12;;;;;;;;;;;;;;;;;;5088231;28;20384;-77
2022/07/29 00:14:59;;;;;;;;;;;;;;;;;;5077953;28;19947;-77
2022/07/29 00:17:45;;;;;;;;;;;;;;;;;;5080311;28;19919;-78
2022/07/29 00:20:31;;;;;;;;;;;;;;;;;;5086272;28;19912;-77
2022/07/29 00:23:18;;;;;;;;;;;;;;;;;;5085230;28;20319;-78
2022/07/29 00:26:04;;;;;;;;;;;;;;;;;;5081307;28;20713;-78
2022/07/29 00:28:51;;;;;;;;;;;;;;;;;;5085644;28;20592;-77
2022/07/29 00:31:37;;;;;;;;;;;;;;;;;;5084690;28;19939;-77
2022/07/29 00:37:29;;;;;;;;;;;;;;;;;;5086049;28;19922;-77
2022/07/29 00:40:15;;;;;;;;;;;;;;;;;;5089003;28;19919;-77
2022/07/29 00:43:02;;;;;;;;;;;;;;;;;;5071963;28;19912;-77
2022/07/29 00:45:48;;;;;;;;;;;;;;;;;;5081176;28;20387;-77
2022/07/29 00:48:35;;;;;;;;;;;;;;;;;;5087807;28;19911;-77
2022/07/29 00:51:21;;;;;;;;;;;;;;;;;;5079012;28;19920;-78
2022/07/29 00:54:08;;;;;;;;;;;;;;;;;;5071704;28;19911;-78
2022/07/29 00:56:54;;;;;;;;;;;;;;;;;;5079360;28;19919;-78
2022/07/29 00:59:41;;;;;;;;;;;;;;;;;;5077377;28;19918;-78
2022/07/29 01:02:27;;;;;;;;;;;;;;;;;;5071500;28;19916;-78
2022/07/29 01:05:14;;;;;;;;;;;;;;;;;;5072214;28;19922;-78
2022/07/29 01:08:00;;;;;;;;;;;;;;;;;;5079730;28;20501;-78
2022/07/29 01:10:47;;;;;;;;;;;;;;;;;;5090854;28;20334;-78
2022/07/29 01:13:33;;;;;;;;;;;;;;;;;;5069259;28;19923;-78
2022/07/29 01:16:20;;;;;;;;;;;;;;;;;;5083920;28;20376;-78
2022/07/29 01:19:06;;;;;;;;;;;;;;;;;;5073109;28;19912;-77
2022/07/29 01:21:53;;;;;;;;;;;;;;;;;;5083349;28;19953;-77
2022/07/29 01:24:39;;;;;;;;;;;;;;;;;;5082899;28;20443;-78
2022/07/29 01:27:26;;;;;;;;;;;;;;;;;;5073120;28;19913;-78
2022/07/29 01:30:12;;;;;;;;;;;;;;;;;;5079951;28;19920;-78
2022/07/29 01:32:59;;;;;;;;;;;;;;;;;;5086240;28;19920;-76
2022/07/29 01:35:45;;;;;;;;;;;;;;;;;;5077682;28;19919;-77
2022/07/29 01:38:32;;;;;;;;;;;;;;;;;;5081188;28;19916;-77
2022/07/29 01:41:19;;;;;;;;;;;;;;;;;;5075049;28;19920;-76
2022/07/29 01:44:05;;;;;;;;;;;;;;;;;;5076745;28;20017;-78
2022/07/29 01:46:51;;;;;;;;;;;;;;;;;;5069791;28;19924;-77
2022/07/29 01:49:38;;;;;;;;;;;;;;;;;;5081563;28;19919;-77
2022/07/29 01:52:24;;;;;;;;;;;;;;;;;;5080896;28;19931;-78
2022/07/29 01:55:11;;;;;;;;;;;;;;;;;;5076935;28;19912;-77
2022/07/29 01:57:57;;;;;;;;;;;;;;;;;;5066634;28;19918;-77
2022/07/29 02:00:44;;;;;;;;;;;;;;;;;;5064945;28;19931;-77
2022/07/29 02:03:30;;;;;;;;;;;;;;;;;;5049931;28;19912;-77
2022/07/29 02:06:17;;;;;;;;;;;;;;;;;;5078033;28;19912;-77
2022/07/29 02:09:03;;;;;;;;;;;;;;;;;;5069256;28;19928;-77
2022/07/29 02:11:50;;;;;;;;;;;;;;;;;;5083924;28;20261;-77
2022/07/29 02:14:36;;;;;;;;;;;;;;;;;;5096540;28;20481;-78
2022/07/29 02:17:23;;;;;;;;;;;;;;;;;;5075784;28;19912;-78
2022/07/29 02:20:09;;;;;;;;;;;;;;;;;;5075939;28;19912;-78
2022/07/29 02:22:56;;;;;;;;;;;;;;;;;;5086604;28;19912;-75
2022/07/29 02:25:42;;;;;;;;;;;;;;;;;;5077659;28;19912;-77
2022/07/29 02:28:29;;;;;;;;;;;;;;;;;;5090249;28;19912;-79
2022/07/29 02:31:15;;;;;;;;;;;;;;;;;;5087704;28;19920;-78
2022/07/29 02:34:01;;;;;;;;;;;;;;;;;;5089056;28;19916;-79
2022/07/29 02:36:48;;;;;;;;;;;;;;;;;;5075712;28;19912;-79
2022/07/29 02:39:34;;;;;;;;;;;;;;;;;;5088013;28;20486;-79
2022/07/29 02:42:21;;;;;;;;;;;;;;;;;;5088945;28;19919;-79
2022/07/29 02:45:07;;;;;;;;;;;;;;;;;;5087184;28;20283;-79
2022/07/29 02:47:54;;;;;;;;;;;;;;;;;;5074134;28;19923;-78
2022/07/29 02:50:40;;;;;;;;;;;;;;;;;;5086947;28;19919;-77
2022/07/29 02:53:27;;;;;;;;;;;;;;;;;;5071023;28;19916;-79
2022/07/29 02:56:14;;;;;;;;;;;;;;;;;;5087880;28;19912;-79
2022/07/29 02:59:00;;;;;;;;;;;;;;;;;;5084425;28;19954;-79
2022/07/29 03:01:46;;;;;;;;;;;;;;;;;;5072112;28;20633;-80
2022/07/29 03:04:34;;;;;;;;;;;;;;;;;;5085412;28;19919;-79
2022/07/29 03:07:20;;;;;;;;;;;;;;;;;;5076639;28;19912;-79
2022/07/29 03:10:07;;;;;;;;;;;;;;;;;;5079038;28;19924;-78
2022/07/29 03:12:53;;;;;;;;;;;;;;;;;;5083820;28;20672;-78
2022/07/29 03:15:39;;;;;;;;;;;;;;;;;;5088988;28;19912;-77
2022/07/29 03:18:26;;;;;;;;;;;;;;;;;;5070523;28;20284;-78
2022/07/29 03:21:12;;;;;;;;;;;;;;;;;;5075733;28;19912;-78
2022/07/29 03:23:59;;;;;;;;;;;;;;;;;;5090509;28;20283;-78
2022/07/29 03:26:45;;;;;;;;;;;;;;;;;;5082205;28;19919;-78
2022/07/29 03:29:32;;;;;;;;;;;;;;;;;;5084985;28;20284;-78
2022/07/29 03:32:18;;;;;;;;;;;;;;;;;;5086329;28;19924;-78
2022/07/29 03:35:05;;;;;;;;;;;;;;;;;;5080847;28;20394;-77
2022/07/29 03:37:51;;;;;;;;;;;;;;;;;;5066272;28;20018;-77
2022/07/29 03:40:38;;;;;;;;;;;;;;;;;;5062100;28;19987;-78
2022/07/29 03:43:24;;;;;;;;;;;;;;;;;;5074043;28;19947;-77
2022/07/29 03:46:11;;;;;;;;;;;;;;;;;;5085134;28;19912;-77
2022/07/29 03:48:58;;;;;;;;;;;;;;;;;;5081468;28;19916;-76
2022/07/29 03:51:44;;;;;;;;;;;;;;;;;;5087945;28;19920;-78
2022/07/29 03:54:31;;;;;;;;;;;;;;;;;;5077882;28;19919;-77
2022/07/29 03:57:17;;;;;;;;;;;;;;;;;;5081539;28;19934;-78
2022/07/29 04:00:04;;;;;;;;;;;;;;;;;;5084370;28;19919;-78
2022/07/29 04:02:51;;;;;;;;;;;;;;;;;;5087583;28;19919;-79
2022/07/29 04:05:41;;;;;;;;;;;;;;;;;;5082489;28;20388;-79
2022/07/29 04:08:27;;;;;;;;;;;;;;;;;;5086924;28;19926;-78
2022/07/29 04:11:13;;;;;;;;;;;;;;;;;;5086159;28;19927;-78
2022/07/29 04:14:00;;;;;;;;;;;;;;;;;;5080635;28;19920;-78
2022/07/29 04:16:46;;;;;;;;;;;;;;;;;;5080724;28;19912;-77
2022/07/29 04:19:33;;;;;;;;;;;;;;;;;;5094177;28;19912;-78
2022/07/29 04:22:19;;;;;;;;;;;;;;;;;;5081168;28;19927;-78
2022/07/29 04:25:06;;;;;;;;;;;;;;;;;;5080682;28;19912;-78
2022/07/29 04:28:02;;;;;;;;;;;;;;;;;;5078728;28;19936;-78
2022/07/29 04:30:48;;;;;;;;;;;;;;;;;;5070812;28;19912;-78
2022/07/29 04:33:35;;;;;;;;;;;;;;;;;;5063884;28;19916;-78
2022/07/29 04:36:21;;;;;;;;;;;;;;;;;;5085957;28;19919;-77
2022/07/29 04:39:07;;;;;;;;;;;;;;;;;;5088387;28;19912;-78
2022/07/29 04:41:54;;;;;;;;;;;;;;;;;;5083840;28;19920;-77
2022/07/29 04:44:40;;;;;;;;;;;;;;;;;;5077290;28;19912;-77
2022/07/29 04:47:27;;;;;;;;;;;;;;;;;;5080796;28;19912;-77
2022/07/29 04:50:13;;;;;;;;;;;;;;;;;;5071606;28;20007;-78
2022/07/29 04:53:00;;;;;;;;;;;;;;;;;;5079495;28;20477;-77
2022/07/29 04:55:46;;;;;;;;;;;;;;;;;;5071102;28;19920;-76
2022/07/29 04:58:33;;;;;;;;;;;;;;;;;;5091532;28;19918;-77
2022/07/29 05:01:20;;;;;;;;;;;;;;;;;;5070926;28;19922;-78
2022/07/29 05:04:06;;;;;;;;;;;;;;;;;;5078768;28;20386;-78
2022/07/29 05:06:52;;;;;;;;;;;;;;;;;;5087227;28;19916;-78
2022/07/29 05:09:39;;;;;;;;;;;;;;;;;;5092987;28;19939;-77
2022/07/29 05:12:25;;;;;;;;;;;;;;;;;;5080837;28;20447;-77
2022/07/29 05:15:12;;;;;;;;;;;;;;;;;;5079667;28;19912;-77
2022/07/29 05:17:58;;;;;;;;;;;;;;;;;;5080041;28;19925;-79
2022/07/29 05:20:45;;;;;;;;;;;;;;;;;;5080125;28;20422;-77
2022/07/29 05:23:31;;;;;;;;;;;;;;;;;;5077155;28;19916;-77
2022/07/29 05:26:18;;;;;;;;;;;;;;;;;;5071835;28;19912;-77
2022/07/29 05:29:04;;;;;;;;;;;;;;;;;;5069881;28;19919;-77
2022/07/29 05:31:52;;;;;;;;;;;;;;;;;;5081889;28;19924;-78
2022/07/29 05:34:39;;;;;;;;;;;;;;;;;;5074354;28;20588;-77
2022/07/29 05:37:25;;;;;;;;;;;;;;;;;;5069084;28;19916;-78
2022/07/29 05:40:12;;;;;;;;;;;;;;;;;;5082128;28;19912;-78
2022/07/29 05:42:58;;;;;;;;;;;;;;;;;;5070864;28;19912;-78
2022/07/29 05:45:45;;;;;;;;;;;;;;;;;;5083682;28;20537;-79
2022/07/29 05:48:32;;;;;;;;;;;;;;;;;;5094807;28;19908;-78
2022/07/29 05:51:18;;;;;;;;;;;;;;;;;;5075729;28;19919;-79
2022/07/29 05:54:05;;;;;;;;;;;;;;;;;;5075225;28;19919;-78
2022/07/29 05:56:51;;;;;;;;;;;;;;;;;;5081471;28;20429;-78
2022/07/29 05:59:37;;;;;;;;;;;;;;;;;;5086154;28;19916;-79
2022/07/29 06:02:24;;;;;;;;;;;;;;;;;;5079745;28;20293;-79
2022/07/29 06:05:10;;;;;;;;;;;;;;;;;;5092011;28;19916;-78
2022/07/29 06:07:57;;;;;;;;;;;;;;;;;;5081081;28;19912;-78
2022/07/29 06:10:43;;;;;;;;;;;;;;;;;;5069871;28;19948;-79
2022/07/29 06:13:32;;;;;;;;;;;;;;;;;;5064529;28;20193;-77
2022/07/29 06:16:18;;;;;;;;;;;;;;;;;;5060908;28;19917;-78
2022/07/29 06:19:08;;;;;;;;;;;;;;;;;;5049710;28;19913;-78
2022/07/29 06:21:54;;;;;;;;;;;;;;;;;;5040380;28;19936;-77
2022/07/29 06:24:43;;;;;;;;;;;;;;;;;;5039404;28;19916;-77
2022/07/29 06:27:30;;;;;;;;;;;;;;;;;;5054753;28;19923;-76
2022/07/29 06:30:16;;;;;;;;;;;;;;;;;;5058606;28;19919;-77
2022/07/29 06:33:03;;;;;;;;;;;;;;;;;;5053038;28;19920;-77
2022/07/29 06:35:50;;;;;;;;;;;;;;;;;;5056421;28;19912;-77
2022/07/29 06:38:38;;;;;;;;;;;;;;;;;;5058788;28;19917;-77
2022/07/29 06:41:25;;;;;;;;;;;;;;;;;;5050560;28;20487;-78
2022/07/29 06:44:12;;;;;;;;;;;;;;;;;;5068439;28;19916;-77
2022/07/29 06:46:58;;;;;;;;;;;;;;;;;;5056572;28;19916;-77
2022/07/29 06:49:45;;;;;;;;;;;;;;;;;;5056265;28;19935;-76
2022/07/29 06:52:31;;;;;;;;;;;;;;;;;;5044761;28;19921;-76
2022/07/29 06:55:19;;;;;;;;;;;;;;;;;;5065260;28;19912;-77
2022/07/29 06:58:06;;;;;;;;;;;;;;;;;;5058719;28;19924;-78
2022/07/29 07:00:53;;;;;;;;;;;;;;;;;;5056850;28;19912;-77
2022/07/29 07:03:39;;;;;;;;;;;;;;;;;;5056626;28;19934;-77
2022/07/29 07:06:26;;;;;;;;;;;;;;;;;;5060848;28;19916;-76
2022/07/29 07:09:12;;;;;;;;;;;;;;;;;;5068202;28;19924;-77
2022/07/29 07:11:59;;;;;;;;;;;;;;;;;;5081587;28;19923;-76
2022/07/29 07:14:45;;;;;;;;;;;;;;;;;;5080812;28;19923;-77
2022/07/29 07:17:32;;;;;;;;;;;;;;;;;;5083169;28;19912;-77
2022/07/29 07:20:18;;;;;;;;;;;;;;;;;;5064649;28;19919;-78
2022/07/29 07:23:05;;;;;;;;;;;;;;;;;;5074247;28;19916;-78
2022/07/29 07:25:51;;;;;;;;;;;;;;;;;;5072228;28;19917;-77
2022/07/29 07:28:38;;;;;;;;;;;;;;;;;;5075895;28;19916;-77
2022/07/29 07:31:24;;;;;;;;;;;;;;;;;;5086353;28;19916;-77
2022/07/29 07:34:11;;;;;;;;;;;;;;;;;;5073948;28;20466;-76
2022/07/29 07:36:57;;;;;;;;;;;;;;;;;;5074759;28;19912;-78
2022/07/29 07:39:44;;;;;;;;;;;;;;;;;;5060011;28;20648;-79
2022/07/29 07:42:30;;;;;;;;;;;;;;;;;;5072147;28;19913;-77
2022/07/29 07:45:17;;;;;;;;;;;;;;;;;;5061653;28;20276;-78
2022/07/29 07:48:03;;;;;;;;;;;;;;;;;;5069895;28;19922;-77
2022/07/29 07:50:51;;;;;;;;;;;;;;;;;;5060684;28;19917;-76
2022/07/29 07:53:37;;;;;;;;;;;;;;;;;;5074109;28;19920;-77
2022/07/29 07:56:24;;;;;;;;;;;;;;;;;;5078091;28;19923;-76
2022/07/29 07:59:10;;;;;;;;;;;;;;;;;;5078466;28;20307;-77
2022/07/29 08:01:57;;;;;;;;;;;;;;;;;;5086313;28;19916;-78
2022/07/29 08:04:43;;;;;;;;;;;;;;;;;;5080545;28;19923;-80
2022/07/29 08:07:30;;;;;;;;;;;;;;;;;;5074270;28;19923;-77
2022/07/29 08:10:51;;;;;;;;;;;;;;;;;;5080283;28;19951;-77
2022/07/29 08:13:22;;;;;;;;;;;;;;;;;;5074613;28;19920;-77
2022/07/29 08:16:12;;;;;;;;;;;;;;;;;;5073411;28;19955;-76
2022/07/29 08:18:59;;;;;;;;;;;;;;;;;;5081721;28;19920;-77
2022/07/29 08:21:45;;;;;;;;;;;;;;;;;;5073635;28;19912;-79
2022/07/29 08:24:44;;;;;;;;;;;;;;;;;;5077590;28;20364;-77
2022/07/29 08:27:31;;;;;;;;;;;;;;;;;;5070886;28;19927;-77
2022/07/29 08:30:18;;;;;;;;;;;;;;;;;;5077453;28;19911;-77
2022/07/29 08:33:04;;;;;;;;;;;;;;;;;;5075924;28;20443;-77
2022/07/29 08:35:51;;;;;;;;;;;;;;;;;;5080815;28;19923;-77
2022/07/29 08:38:37;;;;;;;;;;;;;;;;;;5080188;28;20403;-78
2022/07/29 08:41:24;;;;;;;;;;;;;;;;;;5072415;28;19936;-77
2022/07/29 08:44:10;;;;;;;;;;;;;;;;;;5080025;28;19931;-77
2022/07/29 08:46:57;;;;;;;;;;;;;;;;;;5064960;28;19920;-78
2022/07/29 08:49:44;;;;;;;;;;;;;;;;;;5072341;28;19916;-78
2022/07/29 08:52:31;;;;;;;;;;;;;;;;;;5078801;28;19942;-77
2022/07/29 08:55:18;;;;;;;;;;;;;;;;;;5076798;28;19916;-78
2022/07/29 08:58:04;;;;;;;;;;;;;;;;;;5079038;28;19924;-77
2022/07/29 09:00:51;;;;;;;;;;;;;;;;;;5081872;28;19923;-79
2022/07/29 09:03:38;;;;;;;;;;;;;;;;;;5068495;28;19934;-78
2022/07/29 09:06:27;;;;;;;;;;;;;;;;;;5072061;28;19916;-78
2022/07/29 09:09:14;;;;;;;;;;;;;;;;;;5074860;28;19931;-78
2022/07/29 09:12:00;;;;;;;;;;;;;;;;;;5068204;28;20651;-78
2022/07/29 09:14:47;;;;;;;;;;;;;;;;;;5080098;28;19923;-79
2022/07/29 09:17:33;;;;;;;;;;;;;;;;;;5072328;28;19912;-78
2022/07/29 09:20:20;;;;;;;;;;;;;;;;;;5073726;28;19923;-79
2022/07/29 09:23:06;;;;;;;;;;;;;;;;;;5063484;28;19916;-78
2022/07/29 09:25:52;;;;;;;;;;;;;;;;;;5058316;28;19917;-79
2022/07/29 09:28:39;;;;;;;;;;;;;;;;;;5072867;28;19916;-78
2022/07/29 09:31:25;;;;;;;;;;;;;;;;;;5066384;28;19922;-78
2022/07/29 09:34:12;;;;;;;;;;;;;;;;;;5071895;28;19919;-78
2022/07/29 09:36:59;;;;;;;;;;;;;;;;;;5073144;28;19912;-78
2022/07/29 09:39:45;;;;;;;;;;;;;;;;;;5071570;28;20463;-78
2022/07/29 09:42:33;;;;;;;;;;;;;;;;;;5073408;28;19916;-78
2022/07/29 09:45:20;;;;;;;;;;;;;;;;;;5072902;28;19916;-77
2022/07/29 09:48:06;;;;;;;;;;;;;;;;;;5078598;28;19927;-80
2022/07/29 09:50:53;;;;;;;;;;;;;;;;;;5079345;28;19912;-77
2022/07/29 09:53:40;;;;;;;;;;;;;;;;;;5085131;28;19939;-77
2022/07/29 09:56:27;;;;;;;;;;;;;;;;;;5087830;28;19916;-78
2022/07/29 09:59:13;;;;;;;;;;;;;;;;;;5082976;28;19935;-78
2022/07/29 10:02:00;;;;;;;;;;;;;;;;;;5087766;28;19916;-78
2022/07/29 10:04:46;;;;;;;;;;;;;;;;;;5087190;28;19920;-77
2022/07/29 10:07:33;;;;;;;;;;;;;;;;;;5078187;28;19918;-77
2022/07/29 10:10:19;;;;;;;;;;;;;;;;;;5079300;28;19950;-79
2022/07/29 10:13:06;;;;;;;;;;;;;;;;;;5068489;28;20299;-78
2022/07/29 10:15:52;;;;;;;;;;;;;;;;;;5086282;28;20359;-80
2022/07/29 10:18:39;;;;;;;;;;;;;;;;;;5064507;28;20011;-80
2022/07/29 10:21:25;;;;;;;;;;;;;;;;;;5078874;28;20301;-81
2022/07/29 10:24:12;;;;;;;;;;;;;;;;;;5086774;28;19953;-79
2022/07/29 10:26:58;;;;;;;;;;;;;;;;;;5065691;28;19916;-82
2022/07/29 10:29:45;;;;;;;;;;;;;;;;;;5061754;28;19912;-82
2022/07/29 10:32:31;;;;;;;;;;;;;;;;;;5067128;28;19920;-80
2022/07/29 10:35:18;;;;;;;;;;;;;;;;;;5078197;28;19920;-86
2022/07/29 10:38:04;;;;;;;;;;;;;;;;;;5080940;28;19939;-84
2022/07/29 10:43:56;;;;;;;;;;;;;;;;;;5080555;28;19916;-87
2022/07/29 10:46:43;;;;;;;;;;;;;;;;;;5081592;28;19912;-83
2022/07/29 10:49:29;;;;;;;;;;;;;;;;;;5081379;28;19923;-84
2022/07/29 10:52:16;;;;;;;;;;;;;;;;;;5089022;28;19926;-85
2022/07/29 10:55:04;;;;;;;;;;;;;;;;;;5082017;28;19916;-91
2022/07/29 10:57:51;;;;;;;;;;;;;;;;;;5084983;28;19938;-86
2022/07/29 11:00:37;;;;;;;;;;;;;;;;;;5088070;28;19916;-86
2022/07/29 11:03:23;;;;;;;;;;;;;;;;;;5078262;28;19913;-85
2022/07/29 11:06:10;;;;;;;;;;;;;;;;;;5092169;28;20427;-83
2022/07/29 11:08:56;;;;;;;;;;;;;;;;;;5076148;28;19928;-83
2022/07/29 11:11:43;;;;;;;;;;;;;;;;;;5081243;28;19919;-84
2022/07/29 11:14:29;;;;;;;;;;;;;;;;;;5082314;28;19916;-85
2022/07/29 11:17:16;;;;;;;;;;;;;;;;;;5069207;28;19923;-81
2022/07/29 11:20:02;;;;;;;;;;;;;;;;;;5084475;28;19919;-81
2022/07/29 11:22:49;;;;;;;;;;;;;;;;;;5085883;28;19916;-78
2022/07/29 11:25:35;;;;;;;;;;;;;;;;;;5080877;28;19923;-82
2022/07/29 11:28:22;;;;;;;;;;;;;;;;;;5067376;28;19919;-84
2022/07/29 11:31:08;;;;;;;;;;;;;;;;;;5074690;28;19923;-80
2022/07/29 11:33:55;;;;;;;;;;;;;;;;;;5074207;28;19924;-81
2022/07/29 11:36:41;;;;;;;;;;;;;;;;;;5077439;28;19916;-81
2022/07/29 11:39:28;;;;;;;;;;;;;;;;;;5073431;28;19923;-80
2022/07/29 11:42:14;;;;;;;;;;;;;;;;;;5083375;28;19920;-80
2022/07/29 11:45:00;;;;;;;;;;;;;;;;;;5077026;28;20299;-81
2022/07/29 11:47:47;;;;;;;;;;;;;;;;;;5074740;28;19920;-80
2022/07/29 11:50:34;;;;;;;;;;;;;;;;;;5076099;28;19917;-80
2022/07/29 11:53:20;;;;;;;;;;;;;;;;;;5075690;28;19950;-84
2022/07/29 11:56:07;;;;;;;;;;;;;;;;;;5078033;28;19920;-84
2022/07/29 11:58:53;;;;;;;;;;;;;;;;;;5075450;28;19916;-83
2022/07/29 12:01:40;;;;;;;;;;;;;;;;;;5077539;28;20466;-82
2022/07/29 12:04:26;;;;;;;;;;;;;;;;;;5078057;28;19923;-82
2022/07/29 12:07:13;;;;;;;;;;;;;;;;;;5072620;28;19923;-83
2022/07/29 12:09:59;;;;;;;;;;;;;;;;;;5073754;28;19932;-82
2022/07/29 12:12:46;;;;;;;;;;;;;;;;;;5076006;28;19941;-84
2022/07/29 12:15:32;;;;;;;;;;;;;;;;;;5081433;28;19920;-83
2022/07/29 12:18:19;;;;;;;;;;;;;;;;;;5072389;28;19924;-83
2022/07/29 12:21:08;;;;;;;;;;;;;;;;;;5087053;28;19916;-89
2022/07/29 12:23:54;;;;;;;;;;;;;;;;;;5079553;28;19919;-79
2022/07/29 12:26:41;;;;;;;;;;;;;;;;;;5078132;28;19923;-83
2022/07/29 12:29:27;;;;;;;;;;;;;;;;;;5089147;28;19916;-84
2022/07/29 12:32:14;;;;;;;;;;;;;;;;;;5087128;28;20384;-86
2022/07/29 12:35:00;;;;;;;;;;;;;;;;;;5080467;28;19928;-88
2022/07/29 12:37:47;;;;;;;;;;;;;;;;;;5085182;28;20243;-96
2022/07/29 12:40:34;;;;;;;;;;;;;;;;;;5099297;28;19918;-92
2022/07/29 12:43:20;;;;;;;;;;;;;;;;;;5095546;28;19964;-92
2022/07/29 12:46:07;;;;;;;;;;;;;;;;;;5080317;28;19920;-86
2022/07/29 12:48:57;;;;;;;;;;;;;;;;;;5096695;28;19908;-90
2022/07/29 12:51:43;;;;;;;;;;;;;;;;;;5098213;28;19908;-87
2022/07/29 12:54:30;;;;;;;;;;;;;;;;;;5086253;28;19917;-77
2022/07/29 12:57:16;;;;;;;;;;;;;;;;;;5080576;28;20295;-83
2022/07/29 13:00:03;;;;;;;;;;;;;;;;;;5063607;28;20584;-73
2022/07/29 13:02:49;;;;;;;;;;;;;;;;;;5083363;28;19911;-75
2022/07/29 13:05:36;;;;;;;;;;;;;;;;;;5085808;28;19912;-81
2022/07/29 13:08:23;;;;;;;;;;;;;;;;;;5077679;28;21067;-79
2022/07/29 13:11:10;;;;;;;;;;;;;;;;;;5076858;28;19927;-79
2022/07/29 13:13:57;;;;;;;;;;;;;;;;;;5081177;28;19920;-77
2022/07/29 13:16:43;;;;;;;;;;;;;;;;;;5078642;28;19935;-79
2022/07/29 13:19:30;;;;;;;;;;;;;;;;;;5067665;28;20371;-80
2022/07/29 13:22:16;;;;;;;;;;;;;;;;;;5074194;28;19920;-79
2022/07/29 13:25:03;;;;;;;;;;;;;;;;;;5074998;27;19920;-79
2022/07/29 13:27:49;;;;;;;;;;;;;;;;;;5071432;28;19908;-80
2022/07/29 13:30:36;;;;;;;;;;;;;;;;;;5077765;28;19934;-78
2022/07/29 13:33:23;;;;;;;;;;;;;;;;;;5077976;28;19921;-79
2022/07/29 13:36:10;;;;;;;;;;;;;;;;;;5077501;28;19920;-78
2022/07/29 13:38:56;;;;;;;;;;;;;;;;;;5058403;28;19923;-78
2022/07/29 13:41:43;;;;;;;;;;;;;;;;;;5069530;28;19923;-77
2022/07/29 13:44:29;;;;;;;;;;;;;;;;;;5073793;28;19913;-76
2022/07/29 13:47:16;;;;;;;;;;;;;;;;;;5075755;28;19914;-78
2022/07/29 13:50:02;;;;;;;;;;;;;;;;;;5072547;28;19912;-78
2022/07/29 13:52:50;;;;;;;;;;;;;;;;;;5076961;28;19935;-79
2022/07/29 13:55:36;;;;;;;;;;;;;;;;;;5065367;28;19913;-79
2022/07/29 13:58:23;;;;;;;;;;;;;;;;;;5072606;28;20395;-77
2022/07/29 14:01:09;;;;;;;;;;;;;;;;;;5056874;28;19912;-80
2022/07/29 14:03:56;;;;;;;;;;;;;;;;;;5069925;28;19912;-79
2022/07/29 14:06:42;;;;;;;;;;;;;;;;;;5056392;28;20410;-78
2022/07/29 14:09:29;;;;;;;;;;;;;;;;;;5079844;28;19957;-77
2022/07/29 14:12:15;;;;;;;;;;;;;;;;;;5081695;28;19921;-78
2022/07/29 14:15:02;;;;;;;;;;;;;;;;;;5082097;28;19917;-77
2022/07/29 14:17:48;;;;;;;;;;;;;;;;;;5085824;28;19915;-78
2022/07/29 14:20:35;;;;;;;;;;;;;;;;;;5089902;28;19912;-76
2022/07/29 14:23:21;;;;;;;;;;;;;;;;;;5083301;28;20285;-78
2022/07/29 14:26:08;;;;;;;;;;;;;;;;;;5087349;28;19915;-78
2022/07/29 14:28:54;;;;;;;;;;;;;;;;;;5081436;28;19919;-76
2022/07/29 14:31:42;;;;;;;;;;;;;;;;;;5090304;28;19918;-78
2022/07/29 14:34:29;;;;;;;;;;;;;;;;;;5086482;28;20442;-79
2022/07/29 14:37:15;;;;;;;;;;;;;;;;;;5085088;28;19917;-76
2022/07/29 14:40:03;;;;;;;;;;;;;;;;;;5082734;28;19916;-77
2022/07/29 14:42:49;;;;;;;;;;;;;;;;;;5073179;28;20326;-77
2022/07/29 14:45:36;;;;;;;;;;;;;;;;;;5081896;28;19912;-78
2022/07/29 14:48:22;;;;;;;;;;;;;;;;;;5073596;28;19916;-78
2022/07/29 14:51:10;;;;;;;;;;;;;;;;;;5079078;28;19928;-76
2022/07/29 14:53:56;;;;;;;;;;;;;;;;;;5079163;28;19995;-77
2022/07/29 14:56:43;;;;;;;;;;;;;;;;;;5071246;28;19939;-77
2022/07/29 14:59:29;;;;;;;;;;;;;;;;;;5087575;28;19913;-79
2022/07/29 15:02:16;;;;;;;;;;;;;;;;;;5072144;28;19939;-78
2022/07/29 15:05:02;;;;;;;;;;;;;;;;;;5073092;28;19913;-80
2022/07/29 15:07:49;;;;;;;;;;;;;;;;;;5075915;28;20609;-77
2022/07/29 15:10:35;;;;;;;;;;;;;;;;;;5076858;28;19931;-78
2022/07/29 15:13:22;;;;;;;;;;;;;;;;;;5073358;28;19963;-78
2022/07/29 15:16:09;;;;;;;;;;;;;;;;;;5066507;28;19916;-79
2022/07/29 15:18:57;;;;;;;;;;;;;;;;;;5072952;28;19919;-77
2022/07/29 15:21:43;;;;;;;;;;;;;;;;;;5060515;28;19913;-76
2022/07/29 15:24:30;;;;;;;;;;;;;;;;;;5076217;28;20261;-76
2022/07/29 15:27:16;;;;;;;;;;;;;;;;;;5058677;28;19912;-76
2022/07/29 15:30:03;;;;;;;;;;;;;;;;;;5078229;28;19919;-77
2022/07/29 15:32:49;;;;;;;;;;;;;;;;;;5077247;28;20467;-75
2022/07/29 15:35:36;;;;;;;;;;;;;;;;;;5073169;28;19919;-76
2022/07/29 15:38:22;;;;;;;;;;;;;;;;;;5072316;28;19919;-77
2022/07/29 15:41:09;;;;;;;;;;;;;;;;;;5077113;28;19927;-77
2022/07/29 15:43:55;;;;;;;;;;;;;;;;;;5059743;28;19934;-76
2022/07/29 15:47:03;;;;;;;;;;;;;;;;;;5059275;28;19939;-77
2022/07/29 15:49:49;;;;;;;;;;;;;;;;;;5078193;28;19931;-77
2022/07/29 15:52:35;;;;;;;;;;;;;;;;;;5074761;28;19969;-77
2022/07/29 15:55:23;;;;;;;;;;;;;;;;;;5075896;28;19917;-77
2022/07/29 15:58:09;;;;;;;;;;;;;;;;;;5082103;28;19919;-77
2022/07/29 16:00:58;;;;;;;;;;;;;;;;;;5074807;28;19924;-76
2022/07/29 16:03:44;;;;;;;;;;;;;;;;;;5075232;28;19923;-77
2022/07/29 16:06:31;;;;;;;;;;;;;;;;;;5073343;28;19917;-78
2022/07/29 16:09:17;;;;;;;;;;;;;;;;;;5067997;28;19924;-81
2022/07/29 16:12:04;;;;;;;;;;;;;;;;;;5072860;28;19913;-78
2022/07/29 16:14:51;;;;;;;;;;;;;;;;;;5075442;28;19917;-78
2022/07/29 16:17:37;;;;;;;;;;;;;;;;;;5072560;28;19912;-79
2022/07/29 16:20:24;;;;;;;;;;;;;;;;;;5075832;28;19916;-79
2022/07/29 16:23:11;;;;;;;;;;;;;;;;;;5081955;28;20386;-78
2022/07/29 16:25:57;;;;;;;;;;;;;;;;;;5072447;28;19923;-79
2022/07/29 16:28:44;;;;;;;;;;;;;;;;;;5086472;28;20445;-76
2022/07/29 16:31:30;;;;;;;;;;;;;;;;;;5081260;28;19927;-76
2022/07/29 16:34:17;;;;;;;;;;;;;;;;;;5083833;28;20280;-75
2022/07/29 16:37:03;;;;;;;;;;;;;;;;;;5078400;28;19916;-79
2022/07/29 16:39:50;;;;;;;;;;;;;;;;;;5072718;28;19919;-79
2022/07/29 16:42:36;;;;;;;;;;;;;;;;;;5074485;28;19916;-81
2022/07/29 16:45:22;;;;;;;;;;;;;;;;;;5071374;28;20298;-79
2022/07/29 16:48:09;;;;;;;;;;;;;;;;;;5067008;28;20012;-83
2022/07/29 16:50:55;;;;;;;;;;;;;;;;;;5073012;28;20017;-84
2022/07/29 16:53:43;;;;;;;;;;;;;;;;;;5084189;28;20410;-76
2022/07/29 16:56:30;;;;;;;;;;;;;;;;;;5071411;28;19927;-75
2022/07/29 16:59:16;;;;;;;;;;;;;;;;;;5068677;28;19912;-75
2022/07/29 17:02:03;;;;;;;;;;;;;;;;;;5087355;28;19916;-76
2022/07/29 17:04:49;;;;;;;;;;;;;;;;;;5082386;28;20442;-80
2022/07/29 17:07:36;;;;;;;;;;;;;;;;;;5081569;28;19928;-75
2022/07/29 17:10:23;;;;;;;;;;;;;;;;;;5075619;28;19931;-75
2022/07/29 17:13:09;;;;;;;;;;;;;;;;;;5081547;28;19928;-75
2022/07/29 17:15:56;;;;;;;;;;;;;;;;;;5074755;28;19916;-76
2022/07/29 17:18:42;;;;;;;;;;;;;;;;;;5072800;28;19916;-76
2022/07/29 17:21:29;;;;;;;;;;;;;;;;;;5086606;28;20343;-77
2022/07/29 17:24:15;;;;;;;;;;;;;;;;;;5089039;28;19916;-76
2022/07/29 17:27:02;;;;;;;;;;;;;;;;;;5087364;28;19914;-75
2022/07/29 17:29:49;;;;;;;;;;;;;;;;;;5089732;28;20087;-77
2022/07/29 17:32:37;;;;;;;;;;;;;;;;;;5071240;28;20355;-77
2022/07/29 17:38:29;;;;;;;;;;;;;;;;;;5072864;28;19946;-79
2022/07/29 17:41:16;;;;;;;;;;;;;;;;;;5075794;28;19912;-90
2022/07/29 17:44:02;;;;;;;;;;;;;;;;;;5061770;28;19932;-88
2022/07/29 17:46:49;;;;;;;;;;;;;;;;;;5080902;28;19927;-92
2022/07/29 17:49:35;;;;;;;;;;;;;;;;;;5058396;28;19916;-89
2022/07/29 17:52:21;;;;;;;;;;;;;;;;;;5066132;28;19916;-87
2022/07/29 17:55:09;;;;;;;;;;;;;;;;;;5068532;28;20368;-87
2022/07/29 17:57:55;;;;;;;;;;;;;;;;;;5078302;28;20375;-87
2022/07/29 18:00:42;;;;;;;;;;;;;;;;;;5066628;28;19923;-86
2022/07/29 18:03:28;;;;;;;;;;;;;;;;;;5059896;28;20099;-80
2022/07/29 18:06:14;;;;;;;;;;;;;;;;;;5073942;28;20307;-83
2022/07/29 18:09:01;;;;;;;;;;;;;;;;;;5073893;28;19924;-82
2022/07/29 18:11:47;;;;;;;;;;;;;;;;;;5075922;28;20379;-83
2022/07/29 18:14:34;;;;;;;;;;;;;;;;;;5073395;28;19931;-82
2022/07/29 18:17:20;;;;;;;;;;;;;;;;;;5071386;28;19916;-81
2022/07/29 18:20:07;;;;;;;;;;;;;;;;;;5077250;28;19912;-81
2022/07/29 18:22:53;;;;;;;;;;;;;;;;;;5076975;28;20281;-80
2022/07/29 18:25:40;;;;;;;;;;;;;;;;;;5078275;28;19917;-86
2022/07/29 18:28:26;;;;;;;;;;;;;;;;;;5071582;28;19919;-85
2022/07/29 18:31:13;;;;;;;;;;;;;;;;;;5079556;28;19919;-88
2022/07/29 18:33:59;;;;;;;;;;;;;;;;;;5077758;28;19925;-87
2022/07/29 18:36:46;;;;;;;;;;;;;;;;;;5074098;28;20681;-87
2022/07/29 18:39:32;;;;;;;;;;;;;;;;;;5079968;28;19916;-89
2022/07/29 18:42:19;;;;;;;;;;;;;;;;;;5066137;28;19923;-87
2022/07/29 18:45:05;;;;;;;;;;;;;;;;;;5075744;28;19919;-81
2022/07/29 18:47:52;;;;;;;;;;;;;;;;;;5074774;28;19924;-82
2022/07/29 18:50:38;;;;;;;;;;;;;;;;;;5077622;28;19912;-85
2022/07/29 18:53:25;;;;;;;;;;;;;;;;;;5076488;28;19931;-83
2022/07/29 18:56:11;;;;;;;;;;;;;;;;;;5077993;28;19912;-82
2022/07/29 18:58:58;;;;;;;;;;;;;;;;;;5078530;28;19927;-82
2022/07/29 19:01:44;;;;;;;;;;;;;;;;;;5068445;28;19919;-89
2022/07/29 19:04:30;;;;;;;;;;;;;;;;;;5071568;28;21013;-85
2022/07/29 19:07:17;;;;;;;;;;;;;;;;;;5075574;28;19912;-85